NCAR-RAP Real-Time Weather Data

Output produced by METARs form (17 December 2018  14:07 UTC)
found at http://weather.rap.ucar.edu/surface/
 
RJOM 171200Z 28011KT 250V310 9999 FEW030 BKN080 10/02 Q1016
RJOM 171100Z 29013KT 9999 FEW030 BKN080 10/01 Q1016
RJOM 171000Z 28014KT 9999 FEW040 SCT080 10/01 Q1016
RJOM 170900Z 28016KT 9999 FEW040 BKN080 11/01 Q1015
RJOM 170800Z 28021KT 9999 FEW040 SCT070 11/01 Q1014
RJOM 170727Z 29016G26KT 9999 FEW025 SCT040 BKN070 11/01 Q1014 RMK 1CU025 3CU040 5AC070 A2996
RJOM 170700Z 28015KT 9999 FEW025 SCT040 BKN070 11/01 Q1014
RJOM 170600Z 28018KT 9999 FEW020 SCT050 BKN070 12/02 Q1013
RJOM 170500Z 27018KT 9999 FEW020 SCT060 12/01 Q1013
RJOM 170412Z 26020G30KT 9999 FEW020 SCT035 12/02 Q1013 RMK 1CU020 3CU035 A2993
RJOM 170400Z 28018KT 9999 FEW020 SCT035 13/04 Q1013
RJOM 170300Z 29020KT 9999 FEW020 SCT035 BKN070 11/05 Q1014
RJOM 170227Z 28020G30KT 9999 FEW015 SCT025 BKN050 11/07 Q1014 RMK 1CU015 3CU025 5SC050 A2995
RJOM 170200Z 27019KT 9999 VCSH FEW015 SCT025 BKN070 11/08 Q1014
RJOM 170100Z 26018KT 9999 -SHRA FEW020 SCT030 BKN045 11/07 Q1014
RJOM 170041Z 25013KT 190V260 9999 -SHRA FEW020 SCT035 BKN045 10/09 Q1014 RMK 1CU020 4CU035 6SC045 A2996
RJOM 170000Z 13005KT 9999 VCSH FEW025 BKN050 BKN070 10/09 Q1014
RJOM 162300Z 12005KT 9999 FEW020 BKN060 09/08 Q1014
RJOM 162200Z VRB04KT 9999 FEW015 SCT050 08/08 Q1013
RJOM 162110Z 14007KT 120V200 9999 FEW015 SCT030 BKN050 08/08 Q1013 RMK 1CU015 4CU030 5SC050 A2993
RJOM 161200Z 01013KT 6000 -SHRA FEW006 BKN010 BKN020 11/11 Q1015
RJOM 161100Z 12006KT 8000 -SHRA FEW010 SCT030 BKN050 10/09 Q1015
RJOM 161000Z 11006KT 7000 -SHRA FEW010 SCT030 BKN060 10/09 Q1016
RJOM 160900Z 12006KT 9999 -SHRA FEW015 SCT030 BKN050 10/09 Q1016
RJOM 160800Z 12010KT 9999 -SHRA FEW010 SCT030 BKN050 10/09 Q1017
RJOM 160700Z 11006KT 7000 -SHRA FEW010 SCT030 BKN045 10/09 Q1018
RJOM 160600Z VRB01KT 7000 -SHRA FEW010 SCT030 BKN040 10/09 Q1018
RJOM 160500Z 03006KT 9999 -SHRA FEW015 SCT035 BKN045 10/09 Q1019
RJOM 160400Z 02005KT 9999 -SHRA FEW015 SCT040 BKN050 11/08 Q1020
RJOM 160300Z 36002KT 9999 -SHRA FEW015 SCT040 BKN050 12/05 Q1021
RJOM 160200Z VRB02KT 9999 FEW015 SCT050 BKN100 12/03 Q1022
RJOM 160100Z 12003KT 9999 FEW015 SCT070 BKN140 10/02 Q1023
RJOM 160000Z 13006KT 9999 FEW020 BKN120 06/02 Q1023
RJOM 151200Z 11010KT 9999 FEW030 06/01 Q1029
RJOM 151100Z 11010KT 9999 FEW030 07/01 Q1029
RJOM 151000Z 12008KT 9999 FEW030 08/01 Q1028
RJOM 150900Z 08005KT 050V130 9999 FEW030 08/M01 Q1028
RJOM 150800Z 04006KT 9999 FEW030 SCT/// 10/01 Q1028
RJOM 150700Z 36010KT 9999 FEW025 11/00 Q1028
RJOM 150600Z 35011KT 9999 FEW025 SCT050 12/00 Q1028
RJOM 150500Z 35014KT 9999 FEW025 12/01 Q1028
RJOM 150400Z 35012KT 9999 FEW025 SCT040 12/01 Q1028
RJOM 150300Z 36010KT 340V040 9999 FEW025 SCT040 11/01 Q1029